YM Initiative — A8HX4 — position and weather

sailwx.info

Track history (hours):
 
Tides and Currents Weather Stations Pressure Air Temp Water Temp Dewpoint Dewpoint Depression Visibility Wind Speed Wind Dir Waves Ship Positions

YM Initiative

Last reported at 2014-Nov-01 09:28 UTC. Time now 2014-Nov-01 10:35 UTC.
Position N 01°17' E 103°46'.

Length 173 m; draft 7.7 m.

Type: Cargo ship. MMSI: 635961368.

Date/timePositionNaut miles runAvg speedWind from/ knotsBaromVisibWave heightAir tempDewpointWater temp
2014-Nov-01 09:28N 01°17' E 103°46'0 0.0
2014-Nov-01 08:31N 01°17' E 103°46'0 0.0
2014-Nov-01 07:31N 01°17' E 103°46'0 0.0
2014-Nov-01 06:31N 01°17' E 103°46'0 0.0
2014-Nov-01 05:31N 01°17' E 103°46'0 0.0
2014-Nov-01 04:25N 01°17' E 103°46'0 0.0
2014-Nov-01 03:31N 01°17' E 103°46'0 0.0
2014-Nov-01 02:30N 01°17' E 103°46'0 0.0
2014-Nov-01 01:20N 01°17' E 103°46'0 0.0
2014-Nov-01 00:29N 01°17' E 103°46'0 0.0
2014-Oct-31 23:26N 01°17' E 103°46'0 0.0
2014-Oct-31 22:32N 01°17' E 103°46'0 0.0
2014-Oct-31 21:32N 01°17' E 103°46'0 0.0
2014-Oct-31 20:33N 01°17' E 103°46'2 1.5
2014-Oct-31 19:33N 01°17' E 103°45'3 2.9
2014-Oct-31 18:33N 01°15' E 103°47'6 6.4
2014-Oct-31 17:33N 01°13' E 103°53'4 3.7
2014-Oct-31 16:33N 01°14' E 103°56'9 8.4
2014-Oct-31 15:32N 01°16' E 104°05'1311.9
2014-Oct-31 14:24N 01°19' E 104°18'  
2014-Oct-25 09:34N 01°15' E 104°05'1614.0
2014-Oct-25 08:26N 01°12' E 103°49'6 6.6
2014-Oct-25 07:33N 01°17' E 103°46'0 0.2
2014-Oct-25 06:29N 01°17' E 103°46'0 0.0
2014-Oct-25 05:29N 01°17' E 103°46'0 0.0
2014-Oct-25 04:29N 01°17' E 103°46'0 0.0
2014-Oct-25 03:29N 01°17' E 103°46'0 0.0
2014-Oct-25 02:29N 01°17' E 103°46'0 0.0
2014-Oct-25 01:29N 01°17' E 103°46'0 0.0
2014-Oct-25 00:29N 01°17' E 103°46'0 0.0
2014-Oct-24 23:29N 01°17' E 103°46'0 0.0
2014-Oct-24 22:23N 01°17' E 103°46'0 0.0
2014-Oct-24 21:23N 01°17' E 103°46'0 0.0
2014-Oct-24 20:29N 01°17' E 103°46'0 0.0
2014-Oct-24 19:32N 01°17' E 103°46'0 0.0
2014-Oct-24 18:29N 01°17' E 103°46'0 0.0
2014-Oct-24 17:29N 01°17' E 103°46'0 0.0
2014-Oct-24 16:29N 01°17' E 103°46'1 1.5
2014-Oct-24 15:34N 01°17' E 103°45'4 3.6
2014-Oct-24 14:34N 01°14' E 103°47'6 6.2
2014-Oct-24 13:33N 01°13' E 103°53'7 7.1
2014-Oct-24 12:33N 01°16' E 103°60'7 7.4
2014-Oct-24 11:33N 01°17' E 104°07'7 6.4
2014-Oct-24 10:28N 01°18' E 104°14'  
Track history (hours):
 
Tides and Currents Weather Stations Pressure Air Temp Water Temp Dewpoint Dewpoint Depression Visibility Wind Speed Wind Dir Waves Ship Positions

YM Initiative

Last reported at 2014-Nov-01 09:28 UTC. Time now 2014-Nov-01 10:35 UTC.
Position N 01°17' E 103°46'.

Length 173 m; draft 7.7 m.

Type: Cargo ship. MMSI: 635961368.

Date/timePositionNaut miles runAvg speedWind from/ knotsBaromVisibWave heightAir tempDewpointWater temp
2014-Nov-01 09:28N 01°17' E 103°46'0 0.0
2014-Nov-01 08:31N 01°17' E 103°46'0 0.0
2014-Nov-01 07:31N 01°17' E 103°46'0 0.0
2014-Nov-01 06:31N 01°17' E 103°46'0 0.0
2014-Nov-01 05:31N 01°17' E 103°46'0 0.0
2014-Nov-01 04:25N 01°17' E 103°46'0 0.0
2014-Nov-01 03:31N 01°17' E 103°46'0 0.0
2014-Nov-01 02:30N 01°17' E 103°46'0 0.0
2014-Nov-01 01:20N 01°17' E 103°46'0 0.0
2014-Nov-01 00:29N 01°17' E 103°46'0 0.0
2014-Oct-31 23:26N 01°17' E 103°46'0 0.0
2014-Oct-31 22:32N 01°17' E 103°46'0 0.0
2014-Oct-31 21:32N 01°17' E 103°46'0 0.0
2014-Oct-31 20:33N 01°17' E 103°46'2 1.5
2014-Oct-31 19:33N 01°17' E 103°45'3 2.9
2014-Oct-31 18:33N 01°15' E 103°47'6 6.4
2014-Oct-31 17:33N 01°13' E 103°53'4 3.7
2014-Oct-31 16:33N 01°14' E 103°56'9 8.4
2014-Oct-31 15:32N 01°16' E 104°05'1311.9
2014-Oct-31 14:24N 01°19' E 104°18'  
2014-Oct-25 09:34N 01°15' E 104°05'1614.0
2014-Oct-25 08:26N 01°12' E 103°49'6 6.6
2014-Oct-25 07:33N 01°17' E 103°46'0 0.2
2014-Oct-25 06:29N 01°17' E 103°46'0 0.0
2014-Oct-25 05:29N 01°17' E 103°46'0 0.0
2014-Oct-25 04:29N 01°17' E 103°46'0 0.0
2014-Oct-25 03:29N 01°17' E 103°46'0 0.0
2014-Oct-25 02:29N 01°17' E 103°46'0 0.0
2014-Oct-25 01:29N 01°17' E 103°46'0 0.0
2014-Oct-25 00:29N 01°17' E 103°46'0 0.0
2014-Oct-24 23:29N 01°17' E 103°46'0 0.0
2014-Oct-24 22:23N 01°17' E 103°46'0 0.0
2014-Oct-24 21:23N 01°17' E 103°46'0 0.0
2014-Oct-24 20:29N 01°17' E 103°46'0 0.0
2014-Oct-24 19:32N 01°17' E 103°46'0 0.0
2014-Oct-24 18:29N 01°17' E 103°46'0 0.0
2014-Oct-24 17:29N 01°17' E 103°46'0 0.0
2014-Oct-24 16:29N 01°17' E 103°46'1 1.5
2014-Oct-24 15:34N 01°17' E 103°45'4 3.6
2014-Oct-24 14:34N 01°14' E 103°47'6 6.2
2014-Oct-24 13:33N 01°13' E 103°53'7 7.1
2014-Oct-24 12:33N 01°16' E 103°60'7 7.4
2014-Oct-24 11:33N 01°17' E 104°07'7 6.4
2014-Oct-24 10:28N 01°18' E 104°14'  

Dump ship's entire track history